Terminal Aerodrome Forecast
Issued by NWS

Home | Current Version | Previous Version | Text Only | Print | Product List | Glossary On
Versions: 1 2 3 4 5 6 7 8 9 10 11 12 13 14 15 16 17 18 19
000
FTAK31 PAJN 200500
TAFASI
TAF
PASI 200520Z 2006/2106 12010KT P6SM -SHRA BKN040 OVC080
     FM201000 12008KT P6SM -SHRA SCT025 OVC035
     FM201700 21012KT P6SM -SHRA OVC025
     FM202100 16010KT P6SM -SHRA SCT025 OVC050
     FM210300 14006KT P6SM -SHRA SCT025 BKN050=

USA.gov is the U.S. government's official web portal to all federal, state and local government web resources and services.